Flight Track Log - Related Links

Times and Time Zones

All times are in EDT time to prevent confusion due to time zone crossing. See the SWA3584 flight status page for this flight to view local times or setup timezone preferences in your user account.

Time Position Orientation Groundspeed Altitude Reporting Facility
EDT Latitude Longitude Course Direction KTS MPH feet Rate Location/Type
Thu 07:18:35 AM 28.4000 -81.3000 168° South 163 188 800  Level Orlando TRACON
Thu 07:19:53 AM 28.3333 -81.2833 168° South 197 227 4,300 2,609 Climbing Orlando TRACON
Thu 07:20:53 AM 28.3000 -81.2333 127° Southeast 247 284 6,800 2,550 Climbing Orlando TRACON
Thu 07:21:53 AM 28.3667 -81.2000 24° Northeast 278 320 9,400 2,187 Climbing Orlando TRACON
Thu 07:24:16 AM 28.5589 -81.2547 346° North 344 396 14,200 2,335 Climbing Jacksonville Center
Thu 07:25:16 AM 28.6553 -81.2814 346° North 350 403 17,300 2,950 Climbing Jacksonville Center
Thu 07:26:16 AM 28.7600 -81.3033 350° North 361 415 20,100 2,550 Climbing Jacksonville Center
Thu 07:27:16 AM 28.8625 -81.3303 347° North 371 427 22,400 2,200 Climbing Jacksonville Center
Thu 07:28:16 AM 28.9692 -81.3569 348° North 381 438 24,500 1,800 Climbing Jacksonville Center
Thu 07:29:16 AM 29.0822 -81.3861 347° North 392 451 26,000 2,000 Climbing Jacksonville Center
Thu 07:30:16 AM 29.1953 -81.4011 353° North 398 458 28,500 1,900 Climbing Jacksonville Center
Thu 07:31:16 AM 29.3100 -81.4114 356° North 409 471 29,800 2,050 Climbing Jacksonville Center
Thu 07:32:16 AM 29.4356 -81.4236 355° North 409 471 32,600 2,500 Climbing Jacksonville Center
Thu 07:33:16 AM 29.5442 -81.4339 355° North 397 457 34,800 1,800 Climbing Jacksonville Center
Thu 07:34:16 AM 29.6508 -81.4444 355° North 390 449 36,200 1,100 Climbing Jacksonville Center
Thu 07:35:16 AM 29.7572 -81.4547 355° North 385 443 37,000 400 Climbing Jacksonville Center
Thu 07:36:16 AM 29.8639 -81.4653 355° North 385 443 37,000  Level Jacksonville Center
Thu 07:37:16 AM 29.9725 -81.4756 355° North 385 443 37,000  Level Jacksonville Center
Thu 07:38:16 AM 30.0833 -81.4858 355° North 390 449 37,000  Level Jacksonville Center
Thu 07:39:16 AM 30.1900 -81.4939 356° North 390 449 37,000  Level Jacksonville Center
Thu 07:40:16 AM 30.2986 -81.5067 354° North 390 449 37,000  Level Jacksonville Center
Thu 07:41:16 AM 30.4072 -81.5028 North 390 449 37,000  Level Jacksonville Center
Thu 07:42:16 AM 30.5156 -81.4964 North 390 449 37,000  Level Jacksonville Center
Thu 07:43:16 AM 30.6242 -81.4875 North 385 443 37,000  Level Jacksonville Center
Thu 07:44:16 AM 30.7303 -81.4642 11° North 385 443 37,000  Level Jacksonville Center
Thu 07:45:16 AM 30.8319 -81.3997 29° Northeast 390 449 37,000  Level Jacksonville Center
Thu 07:46:16 AM 30.9333 -81.3328 30° Northeast 402 463 37,000  Level Jacksonville Center
Thu 07:47:16 AM 31.0369 -81.2656 29° Northeast 407 468 37,000  Level Jacksonville Center
Thu 07:48:16 AM 31.1406 -81.2008 28° Northeast 419 482 37,000 -750 Level Jacksonville Center
Thu 07:49:16 AM 31.2419 -81.1333 30° Northeast 414 476 35,500 -1,000 Descending Jacksonville Center
Thu 07:50:16 AM 31.3475 -81.0656 29° Northeast 414 476 35,000 -650 Descending Jacksonville Center
Thu 07:51:16 AM 31.4508 -80.9956 30° Northeast 414 476 34,200 -850 Descending Jacksonville Center
Thu 07:52:16 AM 31.5564 -80.9300 28° Northeast 414 476 33,300 -600 Descending Jacksonville Center
Thu 07:53:16 AM 31.6492 -80.8669 30° Northeast 414 476 33,000 -150 Descending Jacksonville Center
Thu 07:54:16 AM 31.7628 -80.7936 29° Northeast 414 476 33,000  Level Jacksonville Center
Thu 07:55:16 AM 31.8581 -80.7328 28° Northeast 421 484 33,000  Level Jacksonville Center
Thu 07:56:16 AM 31.9694 -80.6567 30° Northeast 421 484 33,000  Level Jacksonville Center
Thu 07:57:16 AM 32.0747 -80.5881 29° Northeast 421 484 33,000  Level Jacksonville Center
Thu 07:58:16 AM 32.1675 -80.5267 29° Northeast 426 490 33,000 -50 Level Jacksonville Center
Thu 07:59:16 AM 32.2725 -80.4578 29° Northeast 426 490 32,900  Descending Jacksonville Center
Thu 08:00:16 AM 32.3736 -80.3886 30° Northeast 420 483 33,000  Climbing Jacksonville Center
Thu 08:01:16 AM 32.4744 -80.3217 29° Northeast 420 483 32,900  Descending Jacksonville Center
Thu 08:02:16 AM 32.5733 -80.2525 31° Northeast 410 472 33,000  Climbing Jacksonville Center
Thu 08:03:16 AM 32.6742 -80.1878 28° Northeast 410 472 32,900  Descending Jacksonville Center
Thu 08:04:16 AM 32.7728 -80.1206 30° Northeast 410 472 33,000 50 Climbing Jacksonville Center
Thu 08:05:16 AM 32.8717 -80.0533 30° Northeast 410 472 33,000  Level Jacksonville Center
Thu 08:06:16 AM 32.9656 -79.9686 37° Northeast 410 472 33,000 -50 Level Jacksonville Center
Thu 08:07:16 AM 33.0575 -79.8814 38° Northeast 420 483 32,900  Descending Jacksonville Center
Thu 08:08:16 AM 33.1575 -79.7836 39° Northeast 427 491 33,000  Climbing Jacksonville Center
Thu 08:09:16 AM 33.2492 -79.6961 39° Northeast 427 491 32,900  Descending Jacksonville Center
Thu 08:10:16 AM 33.3389 -79.6083 39° Northeast 421 484 33,000 50 Climbing Jacksonville Center
Thu 08:11:16 AM 33.4303 -79.5203 39° Northeast 421 484 33,000  Level Jacksonville Center
Thu 08:12:16 AM 33.5217 -79.4272 40° Northeast 416 479 33,000  Level Jacksonville Center
Thu 08:13:16 AM 33.6131 -79.3389 39° Northeast 416 479 33,000  Level Jacksonville Center
Thu 08:14:16 AM 33.7025 -79.2503 39° Northeast 416 479 33,000  Level Jacksonville Center
Thu 08:15:16 AM 33.7897 -79.1642 39° Northeast 411 473 33,000  Level Jacksonville Center
Thu 08:16:16 AM 33.8831 -79.0753 38° Northeast 418 481 33,000 -34 Level Jacksonville Center
Thu 08:18:14 AM 34.0531 -78.9028 40° Northeast 415 478 32,900  Descending Washington Center
Thu 08:19:14 AM 34.1453 -78.8139 39° Northeast 415 478 33,000 50 Climbing Washington Center
Thu 08:20:14 AM 34.2353 -78.7219 40° Northeast 415 478 33,000  Level Washington Center
Thu 08:21:14 AM 34.3272 -78.6297 40° Northeast 415 478 33,000  Level Washington Center
Thu 08:22:14 AM 34.4192 -78.5400 39° Northeast 415 478 33,000  Level Washington Center
Thu 08:23:14 AM 34.5092 -78.4475 40° Northeast 415 478 33,000  Level Washington Center
Thu 08:24:14 AM 34.5989 -78.3547 40° Northeast 415 478 33,000 -50 Level Washington Center
Thu 08:25:14 AM 34.6908 -78.2644 39° Northeast 415 478 32,900  Descending Washington Center
Thu 08:26:14 AM 34.7803 -78.1714 41° Northeast 415 478 33,000 50 Climbing Washington Center
Thu 08:27:14 AM 34.8681 -78.0753 42° Northeast 415 478 33,000  Level Washington Center
Thu 08:28:14 AM 34.9597 -77.9792 41° Northeast 415 478 33,000  Level Washington Center
Thu 08:29:14 AM 35.0592 -77.9061 31° Northeast 415 478 33,000  Level Washington Center
Thu 08:30:14 AM 35.1586 -77.8278 33° Northeast 415 478 33,000  Level Washington Center
Thu 08:31:14 AM 35.2561 -77.7517 33° Northeast 415 478 33,000  Level Washington Center
Thu 08:32:14 AM 35.3575 -77.6753 32° Northeast 420 483 33,000  Level Washington Center
Thu 08:33:14 AM 35.4569 -77.5964 33° Northeast 420 483 33,000  Level Washington Center
Thu 08:34:14 AM 35.5564 -77.5197 32° Northeast 420 483 33,000  Level Washington Center
Thu 08:35:14 AM 35.6556 -77.4403 33° Northeast 420 483 33,000  Level Washington Center
Thu 08:36:14 AM 35.7550 -77.3606 33° Northeast 420 483 33,000  Level Washington Center
Thu 08:37:14 AM 35.8519 -77.2833 33° Northeast 420 483 33,000  Level Washington Center
Thu 08:38:14 AM 35.9533 -77.2033 33° Northeast 420 483 33,000  Level Washington Center
Thu 08:39:14 AM 36.0544 -77.1181 34° Northeast 413 475 33,000 -950 Level Washington Center
Thu 08:40:14 AM 36.1536 -77.0428 31° Northeast 413 475 31,100 -2,000 Descending Washington Center
Thu 08:41:14 AM 36.2506 -76.9647 33° Northeast 413 475 29,000 -1,050 Descending Washington Center
Thu 08:42:14 AM 36.3347 -76.8942 34° Northeast 407 468 29,000  Level Washington Center
Thu 08:43:14 AM 36.4378 -76.8131 32° Northeast 420 483 29,000  Level Washington Center
Thu 08:44:15 AM 36.5450 -76.7269 33° Northeast 433 498 29,000  Level Washington Center
Thu 08:45:14 AM 36.6481 -76.6403 34° Northeast 438 504 29,000  Level Washington Center
Thu 08:46:14 AM 36.7508 -76.5564 33° Northeast 438 504 29,000  Level Washington Center
Thu 08:47:15 AM 36.8517 -76.4719 34° Northeast 438 504 29,000  Level Washington Center
Thu 08:48:14 AM 36.9650 -76.3769 34° Northeast 445 512 29,000  Level Washington Center
Thu 08:49:14 AM 37.0697 -76.2919 33° Northeast 445 512 29,000  Level Washington Center
Thu 08:50:14 AM 37.1725 -76.2069 33° Northeast 445 512 29,000 -600 Level Washington Center
Thu 08:51:14 AM 37.2708 -76.1319 31° Northeast 452 520 27,800 -1,400 Descending Washington Center
Thu 08:52:14 AM 37.3778 -76.0414 34° Northeast 457 526 26,200 -1,250 Descending Washington Center
Thu 08:53:14 AM 37.4886 -75.9503 33° Northeast 463 533 25,300 -650 Descending Washington Center
Thu 08:54:14 AM 37.5972 -75.8564 34° Northeast 463 533 24,900 -200 Descending Washington Center
Thu 08:55:14 AM 37.7017 -75.7678 34° Northeast 463 533 24,900  Level Washington Center
Thu 08:56:14 AM 37.8061 -75.6839 32° Northeast 458 527 24,900 -300 Level Washington Center
Thu 08:57:14 AM 37.9103 -75.5969 33° Northeast 453 521 24,300 -750 Descending Washington Center
Thu 08:58:14 AM 38.0147 -75.5047 35° Northeast 458 527 23,400 -1,000 Descending Washington Center
Thu 08:59:14 AM 38.1250 -75.4281 29° Northeast 458 527 22,300 -1,100 Descending Washington Center
Thu 09:00:14 AM 38.2333 -75.3592 27° Northeast 437 503 21,200 -1,000 Descending Washington Center
Thu 09:01:14 AM 38.3353 -75.2872 29° Northeast 422 486 20,300 -1,533 Descending Washington Center
Thu 09:03:14 AM 38.5372 -75.1592 26° Northeast 399 459 16,600 -1,767 Descending Washington Center
Thu 09:04:14 AM 38.6328 -75.1000 26° Northeast 388 447 15,000 -800 Descending Washington Center
Thu 09:05:14 AM 38.7286 -75.0356 28° Northeast 388 447 15,000  Level Washington Center
Thu 09:06:14 AM 38.8283 -74.9894 20° North 388 447 15,000 -450 Level Washington Center
Thu 09:07:14 AM 38.9344 -74.9753 North 383 441 14,100 -942 Descending Washington Center
Thu 09:08:15 AM 39.0386 -74.9556 North 378 435 13,100 -1,452 Descending Washington Center
Thu 09:09:51 AM 39.2167 -74.9333 North 337 388 10,300 -1,568 Descending Philadelphia TRACON
Thu 09:10:06 AM 39.2256 -74.9303 15° North 327 376 10,200 -706 Descending FAA TRACON SMA TRACON (SMA)
Thu 09:10:25 AM 39.2592 -74.9253 North 311 358 9,900 -1,050 Descending FAA TRACON SMA TRACON (SMA)
Thu 09:10:46 AM 39.2844 -74.9214 North 305 351 9,500 -1,024 Descending FAA TRACON SMA TRACON (SMA)
Thu 09:11:06 AM 39.3094 -74.9172 North 297 342 9,200 -750 Descending FAA TRACON SMA TRACON (SMA)
Thu 09:11:26 AM 39.3392 -74.9122 North 290 334 9,000 -300 Descending FAA TRACON SMA TRACON (SMA)
Thu 09:11:46 AM 39.3628 -74.9089 North 284 327 9,000  Level FAA TRACON SMA TRACON (SMA)
Thu 09:12:05 AM 39.3875 -74.9103 358° North 285 328 9,000  Level FAA TRACON SMA TRACON (SMA)
Thu 09:12:26 AM 39.4181 -74.9219 344° North 297 342 9,000 -146 Level FAA TRACON SMA TRACON (SMA)
Thu 09:12:46 AM 39.4403 -74.9289 346° North 299 344 8,900 -769 Descending FAA TRACON SMA TRACON (SMA)
Thu 09:13:05 AM 39.4678 -74.9331 353° North 300 345 8,500 -1,350 Descending FAA TRACON SMA TRACON (SMA)
Thu 09:13:26 AM 39.5000 -74.9372 354° North 294 338 8,000 -1,350 Descending FAA TRACON SMA TRACON (SMA)
Thu 09:13:45 AM 39.5236 -74.9403 354° North 289 333 7,600 -1,350 Descending FAA TRACON SMA TRACON (SMA)
Thu 09:14:06 AM 39.5536 -74.9450 353° North 279 321 7,100 -1,350 Descending FAA TRACON SMA TRACON (SMA)
Thu 09:14:25 AM 39.5767 -74.9478 355° North 274 315 6,700 -900 Descending FAA TRACON SMA TRACON (SMA)
Thu 09:14:46 AM 39.5983 -74.9503 355° North 272 313 6,500 -585 Descending FAA TRACON SMA TRACON (SMA)
Thu 09:15:06 AM 39.6289 -74.9544 354° North 277 319 6,300 -615 Descending FAA TRACON SMA TRACON (SMA)
Thu 09:15:25 AM 39.6536 -74.9583 353° North 282 325 6,100 -900 Descending FAA TRACON SMA TRACON (SMA)
Thu 09:15:46 AM 39.6756 -74.9669 343° North 270 311 5,700 -1,500 Descending FAA TRACON SMA TRACON (SMA)
Thu 09:16:05 AM 39.6989 -74.9764 343° North 272 313 5,100 -1,950 Descending FAA TRACON SMA TRACON (SMA)
Thu 09:16:26 AM 39.7264 -74.9886 341° North 273 314 4,400 -1,800 Descending FAA TRACON SMA TRACON (SMA)
Thu 09:16:45 AM 39.7486 -74.9983 341° North 274 315 3,900 -1,350 Descending FAA TRACON SMA TRACON (SMA)
Thu 09:17:06 AM 39.7756 -75.0103 341° North 269 310 3,500 -1,200 Descending FAA TRACON SMA TRACON (SMA)
Thu 09:17:25 AM 39.7956 -75.0200 340° North 255 293 3,100 -1,050 Descending FAA TRACON SMA TRACON (SMA)
Thu 09:17:46 AM 39.8158 -75.0300 339° North 253 291 2,800 -878 Descending FAA TRACON SMA TRACON (SMA)
Thu 09:18:06 AM 39.8394 -75.0425 338° Northwest 241 277 2,500 -585 Descending FAA TRACON SMA TRACON (SMA)
Thu 09:18:27 AM 39.8547 -75.0564 325° Northwest 229 264 2,400 -439 Descending FAA TRACON SMA TRACON (SMA)
Thu 09:18:47 AM 39.8683 -75.0772 310° West 200 230 2,200 -615 Descending FAA TRACON SMA TRACON (SMA)
Thu 09:19:06 AM 39.8772 -75.0967 301° West 179 206 2,000 -632 Descending FAA TRACON SMA TRACON (SMA)
Thu 09:19:25 AM 39.8833 -75.1133 296° West 173 199 1,800 -878 Descending FAA TRACON SMA TRACON (SMA)
Thu 09:19:47 AM 39.8881 -75.1308 289° West 138 159 1,400 -857 Descending FAA TRACON SMA TRACON (SMA)
Thu 09:20:07 AM 39.8897 -75.1475 277° West 140 161 1,200 -450 Descending FAA TRACON SMA TRACON (SMA)
Thu 09:20:27 AM 39.8878 -75.1619 260° West 143 165 1,100 -300 Descending FAA TRACON SMA TRACON (SMA)

Login

Don't have an account? Register now (free) for customized features, flight alerts, and more!